Terminal Aerodrome Forecast
Issued by NWS

Home | Current Version | Previous Version | Text Only | Print | Product List | Glossary On
Versions: 1 2 3 4 5 6 7 8 9 10 11 12 13 14
000
FTUS45 KGJT 291726
TAFVEL
TAF
KVEL 291726Z 2918/3018 13006KT P6SM FEW150
     FM300100 02005KT P6SM FEW150
     FM301000 32005KT P6SM SKC
     FM301500 14004KT P6SM SKC=

USA.gov is the U.S. government's official web portal to all federal, state and local government web resources and services.